If you wish to contribute or participate in the discussions about articles you are invited to join SKYbrary as a registered user

 Actions

Albert-Bray Airport

From SKYbrary Wiki

LFAQ
Airport
ICAO: LFAQ
Summary
Name Albert-Bray Airport
Region Europe
Territory France FR.gif
Location , Picardie
Serving Albert
Elevation 110.947 m <br />364 ft <br />364 ft110.947 m <br />
Type small airport
Coordinates 49° 58' 17.51" N, 2° 41' 51.58" E
Runways
Designator Length Width Surface ROPS
9/27 1170 m3,838.583 ft <br /> 25 m82.021 ft <br /> ASP /


METAR
Observation LFAQ 181730Z AUTO 36006KT CAVOK 11/03 Q1022
Station BRAY
Date/Time 18 April 2021 17:30:00
Wind direction 360°
Wind speed 06 kts
Lowest cloud amount clouds and visibility OK
Temperature 11°C
Dew point 3°C
Humidity 57%
QNH 1022 hPa
Weather condition n/a